createdAt,value
2018-06-04T00:02:19.526Z,17.65
2018-06-04T00:04:47.552Z,17.66
2018-06-04T00:07:14.819Z,17.63
2018-06-04T00:09:42.070Z,17.58
2018-06-04T00:12:09.338Z,17.60
2018-06-04T00:14:36.598Z,17.60
2018-06-04T00:17:03.872Z,17.55
2018-06-04T00:19:31.118Z,17.49
2018-06-04T00:21:58.364Z,17.47
2018-06-04T00:24:25.642Z,17.42
2018-06-04T00:26:52.966Z,17.40
2018-06-04T00:29:20.187Z,17.35
2018-06-04T00:31:48.262Z,17.29
2018-06-04T00:34:15.579Z,17.25
2018-06-04T00:36:42.862Z,17.20
2018-06-04T00:39:10.180Z,17.18
2018-06-04T00:41:37.508Z,17.17
2018-06-04T00:44:04.742Z,17.20
2018-06-04T00:46:31.951Z,17.15
2018-06-04T00:48:59.357Z,17.16
2018-06-04T00:51:26.612Z,17.14
2018-06-04T00:53:53.870Z,17.12
2018-06-04T00:56:23.068Z,17.08
2018-06-04T00:58:50.363Z,17.09
2018-06-04T01:01:17.614Z,17.08
2018-06-04T01:03:44.888Z,17.05
2018-06-04T01:06:12.154Z,17.03
2018-06-04T01:08:39.467Z,17.00
2018-06-04T01:11:07.589Z,16.94
2018-06-04T01:13:34.851Z,16.94
2018-06-04T01:16:02.105Z,16.88
2018-06-04T01:18:29.363Z,16.82
2018-06-04T01:20:56.791Z,16.76
2018-06-04T01:23:24.099Z,16.77
2018-06-04T01:25:51.445Z,16.81
2018-06-04T01:28:18.709Z,16.79
2018-06-04T01:30:45.957Z,16.79
2018-06-04T01:33:13.189Z,16.76
2018-06-04T01:35:40.450Z,16.72
2018-06-04T01:38:07.691Z,16.72
2018-06-04T01:40:35.000Z,16.68
2018-06-04T01:43:02.252Z,16.66
2018-06-04T01:45:29.540Z,16.63
2018-06-04T01:47:56.844Z,16.58
2018-06-04T01:50:24.089Z,16.52
2018-06-04T01:52:51.380Z,16.49
2018-06-04T01:55:18.664Z,16.43
2018-06-04T01:57:45.925Z,16.46
2018-06-04T02:00:13.213Z,16.43
2018-06-04T02:02:40.475Z,16.42
2018-06-04T02:05:07.702Z,16.35
2018-06-04T02:07:34.981Z,16.36
2018-06-04T02:10:02.305Z,16.35
2018-06-04T02:12:29.576Z,16.31
2018-06-04T02:14:56.829Z,16.29
2018-06-04T02:17:24.086Z,16.30
2018-06-04T02:19:51.341Z,16.26
2018-06-04T02:22:18.587Z,16.30
2018-06-04T02:24:45.807Z,16.34
2018-06-04T02:27:13.055Z,16.45
2018-06-04T02:29:40.301Z,16.46
2018-06-04T02:32:07.544Z,16.52
2018-06-04T02:34:34.794Z,16.53
2018-06-04T02:37:02.050Z,16.51
2018-06-04T02:39:29.306Z,16.48
2018-06-04T02:41:56.566Z,16.35
2018-06-04T02:44:23.846Z,16.40
2018-06-04T02:46:51.086Z,16.44
2018-06-04T02:49:18.373Z,16.49
2018-06-04T02:51:45.601Z,16.48
2018-06-04T02:54:12.876Z,16.48
2018-06-04T02:56:40.147Z,16.48
2018-06-04T02:59:07.382Z,16.43
2018-06-04T03:01:34.668Z,16.39
2018-06-04T03:04:01.954Z,16.41
2018-06-04T03:06:29.195Z,16.39
2018-06-04T03:08:56.481Z,16.34
2018-06-04T03:11:23.730Z,16.34
2018-06-04T03:13:50.974Z,16.31
2018-06-04T03:16:18.266Z,16.29
2018-06-04T03:18:45.515Z,16.30
2018-06-04T03:21:12.748Z,16.22
2018-06-04T03:23:39.987Z,16.27
2018-06-04T03:26:07.270Z,16.24
2018-06-04T03:28:34.540Z,16.21
2018-06-04T03:31:01.801Z,16.16
2018-06-04T03:33:29.040Z,16.15
2018-06-04T03:35:56.300Z,16.08
2018-06-04T03:38:23.552Z,16.16
2018-06-04T03:40:51.662Z,16.36
2018-06-04T03:43:18.886Z,16.50
2018-06-04T03:45:46.116Z,16.59
2018-06-04T03:48:13.355Z,16.68
2018-06-04T03:50:40.588Z,16.69
2018-06-04T03:53:07.850Z,16.70
2018-06-04T03:55:35.100Z,16.75
2018-06-04T03:58:02.374Z,16.82
2018-06-04T04:00:29.653Z,16.86
2018-06-04T04:02:56.961Z,16.92
2018-06-04T04:05:24.196Z,16.91
2018-06-04T04:07:51.511Z,16.94
2018-06-04T04:10:18.788Z,16.82
2018-06-04T04:12:46.068Z,16.80
2018-06-04T04:15:13.314Z,16.84
2018-06-04T04:17:40.573Z,16.88
2018-06-04T04:20:07.838Z,16.85
2018-06-04T04:22:35.116Z,16.76
2018-06-04T04:25:02.389Z,16.76
2018-06-04T04:27:29.673Z,16.77
2018-06-04T04:29:56.927Z,16.85
2018-06-04T04:32:24.179Z,16.93
2018-06-04T04:34:51.446Z,16.91
2018-06-04T04:37:18.733Z,16.91
2018-06-04T04:39:46.009Z,16.92
2018-06-04T04:42:13.284Z,16.97
2018-06-04T04:44:40.545Z,16.99
2018-06-04T04:47:07.803Z,17.05
2018-06-04T04:49:35.048Z,17.09
2018-06-04T04:52:02.368Z,17.02
2018-06-04T04:54:29.631Z,16.99
2018-06-04T04:56:56.908Z,16.96
2018-06-04T04:59:24.201Z,16.99
2018-06-04T05:01:51.448Z,17.03
2018-06-04T05:04:18.690Z,17.11
2018-06-04T05:06:45.995Z,17.15
2018-06-04T05:09:13.244Z,17.22
2018-06-04T05:11:40.508Z,17.25
2018-06-04T05:14:08.608Z,17.34
2018-06-04T05:16:35.892Z,17.40
2018-06-04T05:19:03.132Z,17.46
2018-06-04T05:21:30.357Z,17.50
2018-06-04T05:23:57.641Z,17.54
2018-06-04T05:26:24.937Z,17.57
2018-06-04T05:28:52.227Z,17.61
2018-06-04T05:31:19.470Z,17.55
2018-06-04T05:33:46.750Z,17.64
2018-06-04T05:36:14.033Z,17.72
2018-06-04T05:38:41.351Z,17.76
2018-06-04T05:41:08.601Z,17.83
2018-06-04T05:43:35.877Z,17.89
2018-06-04T05:46:03.143Z,17.95
2018-06-04T05:48:30.452Z,18.00
2018-06-04T05:50:57.683Z,17.99
2018-06-04T05:53:24.984Z,18.01
2018-06-04T05:55:52.264Z,18.07
2018-06-04T05:58:19.519Z,18.08
2018-06-04T06:00:46.749Z,18.14
2018-06-04T06:03:13.996Z,18.24
2018-06-04T06:05:41.250Z,18.31
2018-06-04T06:08:08.488Z,18.31
2018-06-04T06:10:37.361Z,18.42
2018-06-04T06:13:04.638Z,18.44
2018-06-04T06:15:31.974Z,18.50
2018-06-04T06:17:59.208Z,18.59
2018-06-04T06:20:26.466Z,18.68
2018-06-04T06:22:53.754Z,18.74
2018-06-04T06:25:21.011Z,18.85
2018-06-04T06:27:48.240Z,18.94
2018-06-04T06:30:15.506Z,18.98
2018-06-04T06:32:42.756Z,18.98
2018-06-04T06:35:10.001Z,18.98
2018-06-04T06:37:37.324Z,19.05
2018-06-04T06:40:04.580Z,19.10
2018-06-04T06:42:31.832Z,19.10
2018-06-04T06:44:59.108Z,19.13
2018-06-04T06:47:26.452Z,19.11
2018-06-04T06:49:53.687Z,19.14
2018-06-04T06:52:20.997Z,19.20
2018-06-04T06:54:48.285Z,19.34
2018-06-04T06:57:15.546Z,19.48
2018-06-04T06:59:42.792Z,19.53
2018-06-04T07:02:10.044Z,19.61
2018-06-04T07:04:37.319Z,19.69
2018-06-04T07:07:04.564Z,19.75
2018-06-04T07:09:31.810Z,19.70
2018-06-04T07:11:59.102Z,19.77
2018-06-04T07:14:26.361Z,19.82
2018-06-04T07:16:53.705Z,19.87
2018-06-04T07:19:20.965Z,19.98
2018-06-04T07:21:48.209Z,19.95
2018-06-04T07:24:15.459Z,20.04
2018-06-04T07:26:42.810Z,20.15
2018-06-04T07:29:10.035Z,20.18
2018-06-04T07:31:37.283Z,20.27
2018-06-04T07:34:04.865Z,20.25
2018-06-04T07:36:32.153Z,20.27
2018-06-04T07:38:59.425Z,20.34
2018-06-04T07:41:26.713Z,20.40
2018-06-04T07:43:54.026Z,20.44
2018-06-04T07:46:21.260Z,20.53
2018-06-04T07:48:48.543Z,20.58
2018-06-04T07:51:15.788Z,20.59
2018-06-04T07:53:43.059Z,20.63
2018-06-04T07:56:10.332Z,20.60
2018-06-04T07:58:37.601Z,20.63
2018-06-04T08:01:04.883Z,20.73
2018-06-04T08:03:32.164Z,20.89
2018-06-04T08:05:59.416Z,20.96
2018-06-04T08:08:26.674Z,21.13
2018-06-04T08:10:53.984Z,21.29
2018-06-04T08:13:21.232Z,21.40
2018-06-04T08:15:48.488Z,21.48
2018-06-04T08:18:15.772Z,21.64
2018-06-04T08:20:43.008Z,21.69
2018-06-04T08:23:11.112Z,21.63
2018-06-04T08:25:38.357Z,21.76
2018-06-04T08:28:05.620Z,21.91
2018-06-04T08:30:32.892Z,21.97
2018-06-04T08:33:00.141Z,21.92
2018-06-04T08:35:27.414Z,21.84
2018-06-04T08:37:54.678Z,21.86
2018-06-04T08:40:21.953Z,21.83
2018-06-04T08:42:49.243Z,21.87
2018-06-04T08:45:16.489Z,21.91
2018-06-04T08:47:43.780Z,21.98
2018-06-04T08:50:11.007Z,22.15
2018-06-04T08:52:38.322Z,22.15
2018-06-04T08:55:05.579Z,22.12
2018-06-04T08:57:35.200Z,22.10
2018-06-04T09:00:02.480Z,22.12
2018-06-04T09:02:29.763Z,22.34
2018-06-04T09:04:57.019Z,22.48
2018-06-04T09:07:24.301Z,22.53
2018-06-04T09:09:51.569Z,22.47
2018-06-04T09:12:18.843Z,22.70
2018-06-04T09:14:46.069Z,22.77
2018-06-04T09:17:13.315Z,22.83
2018-06-04T09:19:40.605Z,22.83
2018-06-04T09:22:07.942Z,22.85
2018-06-04T09:24:35.185Z,22.85
2018-06-04T09:27:02.428Z,22.98
2018-06-04T09:29:29.733Z,23.23
2018-06-04T09:31:57.016Z,23.12
2018-06-04T09:34:24.300Z,22.97
2018-06-04T09:36:51.568Z,22.77
2018-06-04T09:39:20.495Z,22.70
2018-06-04T09:41:47.764Z,22.76
2018-06-04T09:44:16.674Z,23.02
2018-06-04T09:46:43.906Z,23.28
2018-06-04T09:49:11.174Z,23.19
2018-06-04T09:51:38.426Z,23.01
2018-06-04T09:54:05.713Z,23.04
2018-06-04T09:56:32.950Z,23.06
2018-06-04T09:59:00.227Z,23.10
2018-06-04T10:01:27.478Z,23.37
2018-06-04T10:03:54.750Z,23.60
2018-06-04T10:06:22.050Z,23.83
2018-06-04T10:08:49.344Z,23.89
2018-06-04T10:11:16.740Z,23.93
2018-06-04T10:13:43.999Z,24.09
2018-06-04T10:16:11.275Z,24.01
2018-06-04T10:18:38.526Z,23.78
2018-06-04T10:21:05.775Z,23.60
2018-06-04T10:23:33.061Z,23.58
2018-06-04T10:26:00.306Z,23.53
2018-06-04T10:28:27.535Z,23.56
2018-06-04T10:30:54.855Z,23.73
2018-06-04T10:33:22.125Z,24.14
2018-06-04T10:35:49.405Z,24.43
2018-06-04T10:38:16.647Z,24.40
2018-06-04T10:40:44.709Z,24.28
2018-06-04T10:43:11.996Z,24.08
2018-06-04T10:45:39.261Z,23.93
2018-06-04T10:48:07.268Z,23.92
2018-06-04T10:50:34.572Z,24.18
2018-06-04T10:53:01.874Z,24.51
2018-06-04T10:55:29.130Z,24.76
2018-06-04T10:57:56.446Z,25.01
2018-06-04T11:00:23.782Z,24.74
2018-06-04T11:02:51.039Z,24.55
2018-06-04T11:05:19.172Z,24.46
2018-06-04T11:07:46.437Z,25.04
2018-06-04T11:10:13.724Z,25.61
2018-06-04T11:12:40.995Z,26.07
2018-06-04T11:15:08.245Z,26.14
2018-06-04T11:17:35.492Z,26.64
2018-06-04T11:20:02.778Z,27.18
2018-06-04T11:22:30.012Z,27.55
2018-06-04T11:24:57.263Z,27.97
2018-06-04T11:27:24.502Z,26.79
2018-06-04T11:29:51.776Z,26.17
2018-06-04T11:32:19.041Z,25.91
2018-06-04T11:34:46.324Z,25.64
2018-06-04T11:37:13.618Z,25.64
2018-06-04T11:39:40.900Z,25.47
2018-06-04T11:42:08.921Z,25.60
2018-06-04T11:44:36.183Z,25.63
2018-06-04T11:47:03.519Z,25.76
2018-06-04T11:49:30.791Z,26.22
2018-06-04T11:51:58.029Z,26.42
2018-06-04T11:54:25.285Z,27.25
2018-06-04T11:56:52.583Z,27.98
2018-06-04T11:59:19.851Z,28.43
2018-06-04T12:01:47.111Z,28.45
2018-06-04T12:04:14.347Z,27.43
2018-06-04T12:06:41.641Z,26.82
2018-06-04T12:09:08.867Z,26.84
2018-06-04T12:11:36.237Z,27.88
2018-06-04T12:14:03.517Z,28.34
2018-06-04T12:16:30.838Z,28.82
2018-06-04T12:18:58.091Z,29.14
2018-06-04T12:21:25.377Z,29.45
2018-06-04T12:23:52.638Z,29.35
2018-06-04T12:26:19.970Z,29.32
2018-06-04T12:28:47.225Z,29.67
2018-06-04T12:31:14.451Z,29.16
2018-06-04T12:33:41.723Z,28.16
2018-06-04T12:36:09.028Z,27.59
2018-06-04T12:38:36.326Z,27.56
2018-06-04T12:41:03.565Z,27.24
2018-06-04T12:43:30.849Z,26.88
2018-06-04T12:45:58.122Z,27.50
2018-06-04T12:48:25.387Z,28.52
2018-06-04T12:50:52.635Z,29.48
2018-06-04T12:53:19.917Z,29.86
2018-06-04T12:55:47.213Z,29.39
2018-06-04T12:58:14.490Z,29.61
2018-06-04T13:00:41.736Z,29.20
2018-06-04T13:03:08.994Z,29.95
2018-06-04T13:05:36.248Z,30.20
2018-06-04T13:08:03.521Z,29.55
2018-06-04T13:10:30.740Z,29.04
2018-06-04T13:12:58.812Z,29.46
2018-06-04T13:15:26.139Z,28.67
2018-06-04T13:17:53.440Z,28.17
2018-06-04T13:20:20.701Z,27.71
2018-06-04T13:22:47.994Z,27.96
2018-06-04T13:25:15.232Z,29.19
2018-06-04T13:27:42.488Z,29.87
2018-06-04T13:30:09.797Z,29.63
2018-06-04T13:32:37.051Z,29.34
2018-06-04T13:35:04.303Z,29.76
2018-06-04T13:37:32.469Z,29.96
2018-06-04T13:39:59.687Z,30.60
2018-06-04T13:42:27.005Z,30.66
2018-06-04T13:44:54.319Z,30.76
2018-06-04T13:47:21.601Z,31.23
2018-06-04T13:49:48.937Z,31.10
2018-06-04T13:52:16.165Z,31.07
2018-06-04T13:54:43.454Z,30.93
2018-06-04T13:57:10.712Z,31.34
2018-06-04T13:59:38.020Z,31.18
2018-06-04T14:02:05.404Z,31.04
2018-06-04T14:04:32.649Z,30.85
2018-06-04T14:06:59.895Z,31.13
2018-06-04T14:09:27.165Z,31.08
2018-06-04T14:11:54.568Z,30.56
2018-06-04T14:14:21.788Z,30.27
2018-06-04T14:16:49.053Z,31.25
2018-06-04T14:19:16.281Z,30.92
2018-06-04T14:21:43.536Z,31.35
2018-06-04T14:24:10.792Z,31.70
2018-06-04T14:26:38.024Z,31.45
2018-06-04T14:29:05.308Z,30.91
2018-06-04T14:31:32.570Z,30.91
2018-06-04T14:33:59.816Z,31.17
2018-06-04T14:36:27.096Z,31.55
2018-06-04T14:38:54.362Z,30.83
2018-06-04T14:41:21.651Z,31.02
2018-06-04T14:43:48.896Z,30.92
2018-06-04T14:46:16.193Z,31.11
2018-06-04T14:48:43.452Z,31.53
2018-06-04T14:51:10.706Z,30.97
2018-06-04T14:53:37.998Z,31.30
2018-06-04T14:56:05.226Z,31.00
2018-06-04T14:58:32.469Z,31.36
2018-06-04T15:00:59.715Z,31.51
2018-06-04T15:03:26.942Z,31.43
2018-06-04T15:05:54.238Z,31.15
2018-06-04T15:08:21.481Z,31.34
2018-06-04T15:10:48.729Z,31.69
2018-06-04T15:13:15.985Z,31.88
2018-06-04T15:15:43.229Z,30.66
2018-06-04T15:18:10.499Z,29.72
2018-06-04T15:20:37.816Z,31.10
2018-06-04T15:23:05.075Z,31.60
2018-06-04T15:25:32.353Z,31.97
2018-06-04T15:27:59.713Z,31.55
2018-06-04T15:30:27.035Z,31.48
2018-06-04T15:32:54.354Z,32.03
2018-06-04T15:35:21.672Z,32.76
2018-06-04T15:37:48.990Z,32.11
2018-06-04T15:40:16.197Z,32.78
2018-06-04T15:42:43.566Z,32.66
2018-06-04T15:45:10.823Z,33.20
2018-06-04T15:47:38.112Z,33.52
2018-06-04T15:50:05.381Z,32.76
2018-06-04T15:52:32.650Z,33.06
2018-06-04T15:54:59.922Z,32.82
2018-06-04T15:57:27.193Z,32.96
2018-06-04T15:59:54.471Z,33.15
2018-06-04T16:02:21.739Z,33.22
2018-06-04T16:04:48.996Z,32.66
2018-06-04T16:07:16.223Z,32.52
2018-06-04T16:09:43.486Z,32.56
2018-06-04T16:12:10.764Z,33.23
2018-06-04T16:14:38.054Z,33.52
2018-06-04T16:17:05.314Z,32.62
2018-06-04T16:19:32.584Z,32.82
2018-06-04T16:21:59.955Z,32.89
2018-06-04T16:24:27.206Z,33.23
2018-06-04T16:26:54.450Z,33.02
2018-06-04T16:29:21.760Z,32.75
2018-06-04T16:31:49.845Z,32.77
2018-06-04T16:34:17.108Z,33.08
2018-06-04T16:36:44.544Z,32.55
2018-06-04T16:39:11.801Z,31.17
2018-06-04T16:41:39.101Z,31.18
2018-06-04T16:44:06.346Z,31.44
2018-06-04T16:46:33.641Z,32.18
2018-06-04T16:49:00.895Z,31.87
2018-06-04T16:51:28.173Z,30.00
2018-06-04T16:53:55.436Z,28.85
2018-06-04T16:56:22.730Z,28.53
2018-06-04T16:58:50.003Z,28.28
2018-06-04T17:01:17.298Z,28.28
2018-06-04T17:03:44.591Z,28.17
2018-06-04T17:06:11.871Z,28.14
2018-06-04T17:08:39.152Z,28.21
2018-06-04T17:11:06.614Z,28.25
2018-06-04T17:13:33.926Z,28.14
2018-06-04T17:16:01.226Z,27.89
2018-06-04T17:18:28.596Z,27.86
2018-06-04T17:20:55.877Z,27.84
2018-06-04T17:23:23.152Z,27.69
2018-06-04T17:25:50.448Z,27.43
2018-06-04T17:28:17.807Z,27.38
2018-06-04T17:30:45.295Z,27.24
2018-06-04T17:33:12.612Z,26.99
2018-06-04T17:35:39.951Z,26.85
2018-06-04T17:38:07.286Z,26.53
2018-06-04T17:40:34.574Z,26.30
2018-06-04T17:43:01.864Z,26.23
2018-06-04T17:45:29.193Z,25.95
2018-06-04T17:47:56.548Z,25.78
2018-06-04T17:50:23.906Z,25.75
2018-06-04T17:52:54.833Z,25.51
2018-06-04T17:55:22.138Z,25.33
2018-06-04T17:57:49.536Z,25.20
2018-06-04T18:00:16.922Z,25.15
2018-06-04T18:02:44.255Z,25.04
2018-06-04T18:05:11.563Z,24.81
2018-06-04T18:07:38.862Z,24.72
2018-06-04T18:10:06.220Z,24.57
2018-06-04T18:12:33.809Z,24.31
2018-06-04T18:15:01.185Z,24.27
2018-06-04T18:17:28.499Z,24.07
2018-06-04T18:19:55.809Z,23.96
2018-06-04T18:22:23.167Z,23.77
2018-06-04T18:24:50.985Z,23.62
2018-06-04T18:27:18.340Z,23.68
2018-06-04T18:29:45.957Z,23.62
2018-06-04T18:32:13.311Z,23.50
2018-06-04T18:34:40.960Z,23.28
2018-06-04T18:37:08.268Z,23.29
2018-06-04T18:39:35.585Z,23.26
2018-06-04T18:42:02.949Z,23.04
2018-06-04T18:44:30.525Z,23.03
2018-06-04T18:46:57.856Z,22.96
2018-06-04T18:49:25.161Z,22.81
2018-06-04T18:51:53.654Z,22.85
2018-06-04T18:54:21.063Z,22.80
2018-06-04T18:56:48.401Z,22.64
2018-06-04T18:59:16.881Z,22.51
2018-06-04T19:01:44.226Z,22.39
2018-06-04T19:04:11.677Z,22.30
2018-06-04T19:06:39.990Z,22.18
2018-06-04T19:09:08.618Z,22.22
2018-06-04T19:11:36.117Z,22.19
2018-06-04T19:14:05.702Z,22.01
2018-06-04T19:16:33.194Z,21.95
2018-06-04T19:19:00.880Z,21.86
2018-06-04T19:21:28.273Z,21.81
2018-06-04T19:23:55.660Z,21.58
2018-06-04T19:26:23.666Z,21.57
2018-06-04T19:28:51.845Z,21.45
2018-06-04T19:31:19.628Z,21.36
2018-06-04T19:33:47.013Z,21.19
2018-06-04T19:36:14.357Z,21.13
2018-06-04T19:38:41.813Z,20.97
2018-06-04T19:41:09.146Z,21.02
2018-06-04T19:43:36.847Z,20.96
2018-06-04T19:46:05.115Z,20.90
2018-06-04T19:48:32.453Z,20.77
2018-06-04T19:51:00.871Z,20.87
2018-06-04T19:53:28.148Z,20.72
2018-06-04T19:55:55.819Z,20.76
2018-06-04T19:58:24.208Z,20.66
2018-06-04T20:00:51.536Z,20.61
2018-06-04T20:03:19.001Z,20.53
2018-06-04T20:05:46.320Z,20.50
2018-06-04T20:08:13.817Z,20.45
2018-06-04T20:10:41.340Z,20.30
2018-06-04T20:13:09.722Z,20.27
2018-06-04T20:15:37.461Z,20.19
2018-06-04T20:18:04.840Z,20.15
2018-06-04T20:20:33.321Z,20.05
2018-06-04T20:23:00.736Z,20.03
2018-06-04T20:25:28.576Z,19.95
2018-06-04T20:27:55.951Z,19.94
2018-06-04T20:30:23.255Z,19.86
2018-06-04T20:35:31.024Z,19.77
2018-06-04T20:37:58.360Z,19.74
2018-06-04T20:40:25.678Z,19.71
2018-06-04T20:42:53.031Z,19.63
2018-06-04T20:45:20.366Z,19.61
2018-06-04T20:47:48.041Z,19.55
2018-06-04T20:50:15.901Z,19.46
2018-06-04T20:52:43.193Z,19.50
2018-06-04T20:55:10.515Z,19.49
2018-06-04T20:57:37.882Z,19.47
2018-06-04T21:00:05.247Z,19.41
2018-06-04T21:02:32.591Z,19.41
2018-06-04T21:04:59.937Z,19.44
2018-06-04T21:07:27.283Z,19.43
2018-06-04T21:09:54.560Z,19.39
2018-06-04T21:12:21.816Z,19.33
2018-06-04T21:14:49.098Z,19.43
2018-06-04T21:17:16.375Z,19.40
2018-06-04T21:19:43.665Z,19.45
2018-06-04T21:22:10.994Z,19.42
2018-06-04T21:24:38.278Z,19.39
2018-06-04T21:27:05.609Z,19.40
2018-06-04T21:29:32.922Z,19.29
2018-06-04T21:32:00.187Z,19.30
2018-06-04T21:34:27.491Z,19.39
2018-06-04T21:36:54.821Z,19.48
2018-06-04T21:39:22.096Z,19.40
2018-06-04T21:41:49.378Z,19.32
2018-06-04T21:44:16.654Z,19.42
2018-06-04T21:46:43.936Z,19.40
2018-06-04T21:49:15.774Z,19.18
2018-06-04T21:51:43.064Z,19.27
2018-06-04T21:54:10.314Z,19.22
2018-06-04T21:56:37.675Z,19.18
2018-06-04T21:59:05.228Z,19.17
2018-06-04T22:01:32.493Z,19.12
2018-06-04T22:03:59.762Z,19.21
2018-06-04T22:06:27.175Z,19.28
2018-06-04T22:08:54.576Z,19.32
2018-06-04T22:11:21.844Z,19.30
2018-06-04T22:13:49.076Z,19.32
2018-06-04T22:16:16.351Z,19.25
2018-06-04T22:18:44.238Z,19.28
2018-06-04T22:21:11.512Z,19.24
2018-06-04T22:23:38.895Z,19.24
2018-06-04T22:26:06.206Z,19.23
2018-06-04T22:28:33.449Z,19.27
2018-06-04T22:31:00.723Z,19.20
2018-06-04T22:33:28.106Z,19.25
2018-06-04T22:35:55.385Z,19.24
2018-06-04T22:38:22.638Z,19.18
2018-06-04T22:40:49.915Z,19.14
2018-06-04T22:43:17.187Z,19.10
2018-06-04T22:45:44.435Z,19.09
2018-06-04T22:48:11.725Z,19.05
2018-06-04T22:50:38.998Z,19.08
2018-06-04T22:53:06.258Z,19.09
2018-06-04T22:55:33.519Z,19.09
2018-06-04T22:58:00.744Z,19.07
2018-06-04T23:00:32.110Z,19.03
2018-06-04T23:02:59.344Z,19.07
2018-06-04T23:05:26.624Z,19.11
2018-06-04T23:07:53.886Z,19.03
2018-06-04T23:10:21.141Z,19.04
2018-06-04T23:12:48.414Z,18.99
2018-06-04T23:15:15.680Z,18.86
2018-06-04T23:17:42.949Z,18.70
2018-06-04T23:20:10.252Z,18.79
2018-06-04T23:22:37.495Z,18.85
2018-06-04T23:25:04.773Z,18.91
2018-06-04T23:27:31.992Z,18.99
2018-06-04T23:29:59.267Z,18.93
2018-06-04T23:32:26.619Z,18.81
2018-06-04T23:34:53.855Z,18.78
2018-06-04T23:37:21.103Z,18.73
2018-06-04T23:39:48.385Z,18.74
2018-06-04T23:42:15.670Z,18.73
2018-06-04T23:44:42.912Z,18.74
2018-06-04T23:47:10.185Z,18.71
2018-06-04T23:49:37.426Z,18.63
2018-06-04T23:52:04.679Z,18.61
2018-06-04T23:54:31.959Z,18.52
2018-06-04T23:56:59.229Z,18.21
2018-06-04T23:59:26.492Z,18.34
